Time;durP1;ratioP1;P1;durP2;ratioP2;P2;SDS_P1;SDS_P2;PMS_P1;PMS_P2;Temp;Humidity;BMP_temperature;BMP_pressure;BME280_temperature;BME280_humidity;BME280_pressure;Samples;Min_cycle;Max_cycle;Signal;HPM_P1;HPM_P2
2021/03/06 00:01:38;;;;;;;3.57;2.00;;;;;;;-0.67;71.98;96115.13;1738622;82;21545;-73
2021/03/06 00:04:07;;;;;;;2.37;1.53;;;;;;;-0.70;71.18;96115.45;1738171;82;21154;-68
2021/03/06 00:06:35;;;;;;;4.47;1.87;;;;;;;-0.81;70.86;96110.31;1738233;82;21114;-73
2021/03/06 00:09:05;;;;;;;2.83;1.60;;;;;;;-0.84;70.55;96118.87;1738235;82;21099;-74
2021/03/06 00:11:33;;;;;;;4.23;2.00;;;;;;;-0.92;70.73;96119.91;1738241;82;21158;-73
2021/03/06 00:14:02;;;;;;;3.07;1.80;;;;;;;-0.95;70.92;96115.05;1738276;82;21146;-73
2021/03/06 00:16:32;;;;;;;3.03;1.90;;;;;;;-0.89;71.14;96120.42;1738262;82;21134;-73
2021/03/06 00:19:00;;;;;;;2.23;1.60;;;;;;;-0.93;70.66;96118.58;1738395;82;21117;-73
2021/03/06 00:21:29;;;;;;;3.17;2.03;;;;;;;-0.97;70.42;96113.69;1738236;82;21142;-73
2021/03/06 00:23:58;;;;;;;7.27;2.33;;;;;;;-1.03;70.14;96119.97;1737367;82;21118;-73
2021/03/06 00:26:26;;;;;;;1.53;1.17;;;;;;;-1.02;70.19;96117.84;1738013;82;21114;-73
2021/03/06 00:28:54;;;;;;;4.90;1.93;;;;;;;-1.06;70.62;96118.97;1738606;82;21157;-73
2021/03/06 00:31:23;;;;;;;2.73;1.47;;;;;;;-1.11;70.71;96125.27;1738488;82;21142;-73
2021/03/06 00:33:52;;;;;;;2.43;1.50;;;;;;;-1.16;70.92;96115.17;1738083;82;21165;-73
2021/03/06 00:36:20;;;;;;;2.67;1.77;;;;;;;-1.17;70.14;96127.25;1738343;82;21560;-74
2021/03/06 00:38:48;;;;;;;3.40;1.73;;;;;;;-1.21;69.85;96115.05;1738245;82;21155;-73
2021/03/06 00:41:18;;;;;;;2.23;1.00;;;;;;;-1.22;70.05;96128.80;1738397;82;21130;-70
2021/03/06 00:43:45;;;;;;;2.50;1.60;;;;;;;-1.27;70.17;96135.52;1738263;82;21595;-73
2021/03/06 00:46:16;;;;;;;3.20;1.97;;;;;;;-1.32;69.60;96130.17;1738180;82;21568;-74
2021/03/06 00:48:44;;;;;;;2.67;1.50;;;;;;;-1.33;69.24;96145.67;1738283;82;21564;-74
2021/03/06 00:51:13;;;;;;;3.93;1.60;;;;;;;-1.47;69.15;96146.45;1738381;82;21578;-73
2021/03/06 00:53:42;;;;;;;4.73;1.83;;;;;;;-1.43;68.97;96131.52;1738288;82;21564;-73
2021/03/06 00:56:10;;;;;;;3.63;2.20;;;;;;;-1.41;69.21;96130.25;1738314;82;21623;-73
2021/03/06 00:58:38;;;;;;;4.20;1.80;;;;;;;-1.38;69.49;96130.39;1738519;82;21576;-73
2021/03/06 01:01:11;;;;;;;3.83;1.50;;;;;;;-1.43;68.68;96142.29;1738441;82;21521;-73
2021/03/06 01:03:40;;;;;;;3.37;1.50;;;;;;;-1.41;68.41;96137.63;1738415;82;21115;-75
2021/03/06 01:06:09;;;;;;;5.00;1.80;;;;;;;-1.37;68.64;96133.02;1738304;82;21130;-76
2021/03/06 01:08:38;;;;;;;2.27;1.40;;;;;;;-1.41;67.44;96135.43;1738114;82;21098;-75
2021/03/06 01:11:06;;;;;;;3.60;1.60;;;;;;;-1.45;67.49;96154.28;1738383;82;21564;-76
2021/03/06 01:13:34;;;;;;;3.60;1.80;;;;;;;-1.55;66.92;96155.23;1738661;82;21268;-75
2021/03/06 01:16:02;;;;;;;2.00;1.33;;;;;;;-1.53;67.24;96157.89;1738225;82;21090;-75
2021/03/06 01:18:31;;;;;;;3.17;1.40;;;;;;;-1.59;67.14;96157.26;1738656;82;21141;-75
2021/03/06 01:20:59;;;;;;;4.63;2.27;;;;;;;-1.59;67.12;96179.64;1738463;82;21577;-75
2021/03/06 01:23:28;;;;;;;1.70;1.03;;;;;;;-1.53;66.94;96181.18;1738487;82;21312;-74
2021/03/06 01:25:55;;;;;;;3.67;2.00;;;;;;;-1.62;67.07;96177.82;1738349;82;21125;-74
2021/03/06 01:28:24;;;;;;;2.70;1.87;;;;;;;-1.58;66.57;96175.83;1738224;82;21122;-75
2021/03/06 01:30:52;;;;;;;4.87;2.63;;;;;;;-1.62;66.41;96179.11;1738450;82;21138;-75
2021/03/06 01:33:21;;;;;;;4.07;1.60;;;;;;;-1.56;66.74;96171.59;1738661;82;21745;-75
2021/03/06 01:35:49;;;;;;;2.53;1.47;;;;;;;-1.57;67.01;96167.22;1739974;82;21260;-75
2021/03/06 01:38:18;;;;;;;4.37;2.47;;;;;;;-1.58;66.61;96171.07;1739609;82;21099;-75
2021/03/06 01:40:46;;;;;;;4.63;2.33;;;;;;;-1.61;66.89;96177.44;1739691;82;21129;-75
2021/03/06 01:43:17;;;;;;;2.90;1.10;;;;;;;-1.59;66.79;96175.37;1739309;82;21595;-75
2021/03/06 01:45:47;;;;;;;2.60;1.72;;;;;;;-1.63;66.89;96176.07;1739452;82;21130;-75
2021/03/06 01:48:16;;;;;;;3.60;1.97;;;;;;;-1.60;67.02;96192.13;1739371;82;21131;-76
2021/03/06 01:50:46;;;;;;;1.60;1.03;;;;;;;-1.62;66.77;96183.41;1739501;82;21556;-75
2021/03/06 01:53:16;;;;;;;3.57;1.87;;;;;;;-1.62;66.84;96183.41;1739564;82;21114;-75
2021/03/06 01:55:47;;;;;;;7.03;2.90;;;;;;;-1.62;66.97;96197.64;1739452;82;21122;-75
2021/03/06 01:58:16;;;;;;;4.33;2.67;;;;;;;-1.59;66.92;96201.63;1739380;82;21079;-75
2021/03/06 02:00:46;;;;;;;3.10;2.13;;;;;;;-1.57;66.54;96199.98;1739767;82;21537;-75
2021/03/06 02:03:16;;;;;;;4.80;2.37;;;;;;;-1.58;66.32;96191.77;1739663;82;21147;-75
2021/03/06 02:05:45;;;;;;;5.70;2.83;;;;;;;-1.59;66.61;96198.66;1739360;82;21115;-75
2021/03/06 02:08:14;;;;;;;6.33;2.80;;;;;;;-1.58;66.69;96205.59;1739396;82;21130;-75
2021/03/06 02:10:44;;;;;;;5.13;2.90;;;;;;;-1.61;66.57;96213.23;1739248;82;21159;-74
2021/03/06 02:13:46;;;;;;;3.87;2.33;;;;;;;-1.65;66.95;96207.88;1739427;82;21576;-75
2021/03/06 02:16:36;;;;;;;7.07;3.10;;;;;;;-1.64;67.09;96209.25;1739415;82;21589;-75
2021/03/06 02:19:47;;;;;;;3.57;2.20;;;;;;;-1.66;66.76;96212.57;1698275;82;21151;-75
2021/03/06 02:22:30;;;;;;;4.13;2.80;;;;;;;-1.75;66.68;96225.63;1739631;82;21174;-75
2021/03/06 02:25:11;;;;;;;7.77;2.43;;;;;;;-1.72;67.29;96219.69;1735876;82;21143;-75
2021/03/06 02:27:50;;;;;;;3.17;2.23;;;;;;;-1.75;67.20;96229.51;1739327;82;21110;-75
2021/03/06 02:30:20;;;;;;;7.50;3.07;;;;;;;-1.78;67.53;96230.69;1738788;82;21147;-74
2021/03/06 02:32:50;;;;;;;4.23;2.00;;;;;;;-1.76;67.55;96242.41;1739355;82;21138;-74
2021/03/06 02:35:30;;;;;;;5.43;2.70;;;;;;;-1.79;67.70;96241.88;1738322;82;21561;-75
2021/03/06 02:38:05;;;;;;;5.00;2.60;;;;;;;-1.77;67.16;96239.33;1738330;82;21083;-75
2021/03/06 02:40:38;;;;;;;4.00;3.00;;;;;;;-1.78;66.81;96249.22;1738228;82;21553;-75
2021/03/06 02:43:09;;;;;;;;;;;;;;;-1.76;66.22;96254.05;1741149;82;21260;-75
2021/03/06 02:45:38;;;;;;;5.13;2.83;;;;;;;-1.75;66.05;96250.63;1738444;82;20397;-75
2021/03/06 02:48:08;;;;;;;7.57;2.80;;;;;;;-1.79;66.51;96253.91;1738296;82;21134;-75
2021/03/06 02:50:36;;;;;;;4.63;2.47;;;;;;;-1.80;66.47;96253.03;1738626;82;21110;-75
2021/03/06 02:53:04;;;;;;;5.10;2.80;;;;;;;-1.75;66.71;96262.27;1738297;82;21600;-75
2021/03/06 02:55:34;;;;;;;3.10;2.13;;;;;;;-1.76;66.80;96265.27;1737804;82;21150;-74
2021/03/06 02:58:34;;;;;;;5.47;3.17;;;;;;;-1.75;66.39;96268.31;1738450;82;21126;-75
2021/03/06 03:01:22;;;;;;;7.10;2.67;;;;;;;-1.67;66.57;96275.50;1728195;82;21127;-74
2021/03/06 03:04:11;;;;;;;5.37;2.20;;;;;;;-1.69;66.96;96286.20;1707932;82;21513;-74
2021/03/06 03:06:46;;;;;;;3.17;1.80;;;;;;;-1.74;66.36;96293.77;1738219;82;21146;-74
2021/03/06 03:09:23;;;;;;;7.00;3.00;;;;;;;-1.82;65.78;96288.30;1738489;82;21114;-75
2021/03/06 03:12:06;;;;;;;4.47;2.63;;;;;;;-1.81;65.41;96297.84;1738613;82;21095;-75
2021/03/06 03:14:47;;;;;;;4.80;2.57;;;;;;;-1.80;65.31;96312.52;1738108;82;21154;-74
2021/03/06 03:17:33;;;;;;;4.03;2.43;;;;;;;-1.81;65.63;96313.78;1738579;82;21112;-75
2021/03/06 03:20:15;;;;;;;5.53;2.57;;;;;;;-1.83;65.43;96321.46;1731784;82;21379;-75
2021/03/06 03:22:47;;;;;;;3.97;2.30;;;;;;;-1.82;65.36;96327.09;1738189;82;21123;-74
2021/03/06 03:25:18;;;;;;;3.50;1.57;;;;;;;-1.83;65.38;96333.52;1738347;82;21580;-75
2021/03/06 03:27:48;;;;;;;4.10;2.63;;;;;;;-1.85;65.93;96333.86;1738219;82;21117;-74
2021/03/06 03:30:19;;;;;;;4.50;2.20;;;;;;;-1.87;64.32;96333.78;1738485;82;21139;-75
2021/03/06 03:32:51;;;;;;;4.07;2.43;;;;;;;-1.91;64.34;96342.67;1738798;82;21103;-74
2021/03/06 03:35:24;;;;;;;5.07;2.57;;;;;;;-1.89;64.62;96343.21;1739209;82;21544;-74
2021/03/06 03:37:55;;;;;;;4.30;2.63;;;;;;;-1.85;64.54;96353.26;1739375;82;21139;-74
2021/03/06 03:40:25;;;;;;;7.60;3.00;;;;;;;-1.85;63.77;96354.14;1739902;82;21118;-75
2021/03/06 03:42:57;;;;;;;5.23;2.23;;;;;;;-1.90;63.42;96356.94;1739061;82;21118;-75
2021/03/06 03:45:27;;;;;;;4.07;2.37;;;;;;;-1.92;63.66;96361.16;1739498;82;21126;-75
2021/03/06 03:47:55;;;;;;;6.60;2.90;;;;;;;-1.94;63.98;96361.92;1739284;82;21122;-74
2021/03/06 03:50:25;;;;;;;4.53;2.80;;;;;;;-1.94;63.85;96364.51;1739225;82;21145;-75
2021/03/06 03:52:54;;;;;;;5.03;2.33;;;;;;;-1.99;63.78;96366.89;1739289;82;21138;-74
2021/03/06 03:55:24;;;;;;;5.57;2.80;;;;;;;-2.00;63.95;96372.48;1739295;82;21135;-74
2021/03/06 03:57:55;;;;;;;5.90;2.23;;;;;;;-1.96;64.29;96378.27;1739128;82;21118;-74
2021/03/06 04:00:23;;;;;;;4.67;2.30;;;;;;;-1.94;63.54;96387.78;1739677;82;21134;-74
2021/03/06 04:02:51;;;;;;;6.43;2.80;;;;;;;-1.91;63.31;96390.52;1739143;82;21166;-74
2021/03/06 04:05:21;;;;;;;6.83;2.93;;;;;;;-1.91;63.56;96391.41;1739571;82;21126;-75
2021/03/06 04:07:52;;;;;;;6.43;2.47;;;;;;;-1.92;63.31;96391.32;1739131;82;21134;-75
2021/03/06 04:10:23;;;;;;;6.17;2.97;;;;;;;-1.91;63.02;96392.69;1739419;82;21126;-75
2021/03/06 04:12:54;;;;;;;4.50;3.00;;;;;;;-1.93;62.98;96392.16;1739315;82;21134;-74
2021/03/06 04:15:24;;;;;;;6.43;2.80;;;;;;;-1.95;63.28;96403.72;1739385;82;21600;-74
2021/03/06 04:17:54;;;;;;;7.55;3.65;;;;;;;-1.94;64.42;96407.17;1739340;82;21122;-74
2021/03/06 04:20:23;;;;;;;4.67;2.10;;;;;;;-1.93;63.84;96415.02;1739692;82;21129;-75
2021/03/06 04:22:51;;;;;;;4.93;2.40;;;;;;;-1.93;63.62;96416.31;1739471;82;21163;-74
2021/03/06 04:25:19;;;;;;;3.37;2.13;;;;;;;-2.02;63.40;96422.38;1739262;82;21146;-75
2021/03/06 04:27:47;;;;;;;5.43;2.63;;;;;;;-2.04;63.47;96422.70;1739211;82;21094;-75
2021/03/06 04:30:18;;;;;;;9.33;3.13;;;;;;;-2.00;63.61;96431.09;1739542;82;21138;-74
2021/03/06 04:32:47;;;;;;;5.77;3.00;;;;;;;-1.91;63.62;96437.08;1739299;82;21592;-75
2021/03/06 04:35:15;;;;;;;6.50;2.90;;;;;;;-1.88;64.04;96439.38;1738619;82;21130;-74
2021/03/06 04:37:43;;;;;;;4.67;2.53;;;;;;;-1.87;63.37;96445.01;1738494;82;21142;-74
2021/03/06 04:40:15;;;;;;;7.00;2.80;;;;;;;-1.86;63.93;96455.84;1738422;82;21142;-75
2021/03/06 04:42:45;;;;;;;5.17;3.03;;;;;;;-1.88;63.08;96457.48;1738549;82;21114;-75
2021/03/06 04:45:16;;;;;;;5.83;2.90;;;;;;;-1.91;63.10;96459.94;1738345;82;21106;-75
2021/03/06 04:47:48;;;;;;;6.10;2.70;;;;;;;-1.90;63.24;96463.41;1738543;82;21517;-74
2021/03/06 04:50:16;;;;;;;4.57;2.57;;;;;;;-1.88;63.24;96463.94;1738427;82;21126;-75
2021/03/06 04:52:45;;;;;;;5.60;3.30;;;;;;;-1.83;63.36;96469.32;1738380;82;21557;-74
2021/03/06 04:55:13;;;;;;;6.77;3.50;;;;;;;-1.83;62.84;96472.78;1738626;82;21149;-74
2021/03/06 04:57:42;;;;;;;6.00;2.90;;;;;;;-1.82;62.89;96471.95;1738458;82;21150;-75
2021/03/06 05:00:11;;;;;;;4.70;2.53;;;;;;;-1.81;63.05;96474.16;1738346;82;21150;-74
2021/03/06 05:02:40;;;;;;;3.90;2.20;;;;;;;-1.81;63.41;96476.33;1738583;82;21138;-74
2021/03/06 05:05:10;;;;;;;4.83;2.80;;;;;;;-1.93;63.28;96473.20;1738402;82;21142;-75
2021/03/06 05:07:38;;;;;;;7.80;2.90;;;;;;;-1.95;64.04;96476.12;1738417;82;21670;-75
2021/03/06 05:10:10;;;;;;;5.17;3.13;;;;;;;-2.01;63.29;96482.34;1738398;82;21114;-74
2021/03/06 05:12:39;;;;;;;6.50;3.13;;;;;;;-1.98;63.43;96488.52;1738496;82;21119;-74
2021/03/06 05:15:09;;;;;;;5.27;2.90;;;;;;;-1.99;63.46;96481.98;1738451;82;21308;-74
2021/03/06 05:17:37;;;;;;;4.57;2.70;;;;;;;-2.02;63.58;96489.61;1738555;82;21685;-75
2021/03/06 05:20:07;;;;;;;5.80;2.90;;;;;;;-1.96;63.64;96497.66;1738767;82;21268;-74
2021/03/06 05:22:35;;;;;;;5.00;2.77;;;;;;;-1.96;64.12;96494.66;1738436;82;21572;-74
2021/03/06 05:25:04;;;;;;;6.87;3.40;;;;;;;-1.97;63.85;96495.86;1738584;82;21118;-75
2021/03/06 05:27:33;;;;;;;5.43;2.70;;;;;;;-2.05;62.97;96501.99;1738094;82;21568;-74
2021/03/06 05:30:01;;;;;;;4.67;1.90;;;;;;;-2.02;62.79;96507.30;1738269;82;21133;-75
2021/03/06 05:32:28;;;;;;;7.60;3.60;;;;;;;-2.10;63.49;96511.66;1738453;82;21142;-74
2021/03/06 05:34:57;;;;;;;6.47;3.73;;;;;;;-2.06;63.67;96515.75;1731502;82;21131;-75
2021/03/06 05:37:27;;;;;;;5.30;2.27;;;;;;;-1.99;63.66;96520.39;1737422;82;21564;-75
2021/03/06 05:39:55;;;;;;;5.57;3.53;;;;;;;-2.01;63.84;96539.23;1738397;82;21142;-74
2021/03/06 05:42:26;;;;;;;7.70;3.60;;;;;;;-2.00;63.13;96528.94;1738329;82;21158;-74
2021/03/06 05:44:57;;;;;;;7.20;3.87;;;;;;;-1.99;63.31;96533.70;1738328;82;21577;-74
2021/03/06 05:47:26;;;;;;;5.93;3.50;;;;;;;-2.07;63.43;96529.89;1738366;82;21133;-75
2021/03/06 05:49:59;;;;;;;4.53;3.10;;;;;;;-2.05;63.34;96530.44;1738624;82;21111;-74
2021/03/06 05:52:31;;;;;;;4.63;2.67;;;;;;;-2.10;63.97;96531.05;1738582;82;21126;-74
2021/03/06 05:55:01;;;;;;;8.43;3.70;;;;;;;-2.24;63.79;96541.67;1738211;82;21137;-74
2021/03/06 05:57:34;;;;;;;8.57;3.80;;;;;;;-2.30;63.88;96548.25;1738714;82;21142;-74
2021/03/06 06:00:04;;;;;;;7.87;3.67;;;;;;;-2.30;63.88;96548.25;1738542;82;21102;-74
2021/03/06 06:02:32;;;;;;;4.47;2.83;;;;;;;-2.30;63.88;96555.59;1738473;82;21114;-74
2021/03/06 06:05:01;;;;;;;6.87;3.77;;;;;;;-2.40;63.97;96568.48;1738411;82;21565;-74
2021/03/06 06:07:31;;;;;;;5.97;3.87;;;;;;;-2.37;63.86;96567.74;1738607;82;21264;-75
2021/03/06 06:09:59;;;;;;;8.33;4.50;;;;;;;-2.37;64.17;96574.62;1738488;82;21130;-74
2021/03/06 06:12:29;;;;;;;9.63;4.70;;;;;;;-2.37;64.52;96574.20;1738719;82;21536;-74
2021/03/06 06:14:58;;;;;;;7.33;4.00;;;;;;;-2.24;64.32;96584.73;1738205;82;21155;-74
2021/03/06 06:17:27;;;;;;;6.53;3.70;;;;;;;-2.20;64.32;96595.67;1738214;82;21131;-75
2021/03/06 06:19:55;;;;;;;6.50;3.43;;;;;;;-2.12;63.96;96598.20;1738488;82;21137;-74
2021/03/06 06:22:25;;;;;;;8.93;3.83;;;;;;;-2.12;63.34;96598.61;1738604;82;21154;-75
2021/03/06 06:24:53;;;;;;;6.10;2.20;;;;;;;-2.06;63.14;96602.80;1738347;82;21103;-75
2021/03/06 06:27:31;;;;;;;6.80;3.50;;;;;;;-2.02;62.87;96613.73;1738333;82;21545;-74
2021/03/06 06:30:12;;;;;;;5.13;2.77;;;;;;;-1.96;63.22;96611.03;1738474;82;21155;-70
2021/03/06 06:32:45;;;;;;;4.50;2.90;;;;;;;-1.95;62.57;96611.91;1738740;82;21135;-74
2021/03/06 06:35:16;;;;;;;6.80;4.10;;;;;;;-1.89;63.11;96607.04;1738737;82;21556;-75
2021/03/06 06:38:05;;;;;;;6.20;3.63;;;;;;;-1.83;62.84;96617.65;1739654;82;21122;-74
2021/03/06 06:40:37;;;;;;;8.33;4.50;;;;;;;-1.75;62.75;96607.23;1739629;82;21114;-74
2021/03/06 06:43:25;;;;;;;3.93;2.30;;;;;;;-1.72;62.60;96612.95;1739369;82;21137;-74
2021/03/06 06:45:56;;;;;;;10.20;4.30;;;;;;;-1.81;62.13;96622.91;1739182;82;21106;-75
2021/03/06 06:48:25;;;;;;;5.43;3.60;;;;;;;-1.78;62.35;96625.21;1739733;82;21146;-75
2021/03/06 06:51:09;;;;;;;4.03;2.80;;;;;;;-1.83;61.68;96628.00;1739611;82;21122;-75
2021/03/06 06:53:37;;;;;;;6.77;3.47;;;;;;;-1.83;61.29;96635.76;1739548;82;21541;-75
2021/03/06 06:56:24;;;;;;;5.27;3.27;;;;;;;-1.77;61.26;96634.73;1739552;82;21569;-74
2021/03/06 06:58:55;;;;;;;5.60;3.07;;;;;;;-1.79;60.92;96637.68;1739298;82;21541;-74
2021/03/06 07:01:34;;;;;;;8.90;3.40;;;;;;;-1.81;61.62;96648.36;1737048;82;21170;-75
2021/03/06 07:04:11;;;;;;;9.50;4.30;;;;;;;-1.74;61.58;96646.92;1739408;82;21131;-75
2021/03/06 07:06:41;;;;;;;9.80;4.33;;;;;;;-1.67;61.42;96641.63;1739331;82;21134;-75
2021/03/06 07:09:13;;;;;;;5.67;2.63;;;;;;;-1.59;61.31;96642.84;1712848;82;21146;-75
2021/03/06 07:11:43;;;;;;;3.63;2.10;;;;;;;-1.73;60.86;96651.71;1739341;82;21131;-74
2021/03/06 07:14:11;;;;;;;6.63;3.90;;;;;;;-1.72;61.76;96650.47;1739225;82;21191;-75
2021/03/06 07:16:59;;;;;;;9.97;5.07;;;;;;;-1.68;61.79;96660.56;1739346;82;21147;-75
2021/03/06 07:19:32;;;;;;;6.83;4.10;;;;;;;-1.52;61.91;96652.66;1739702;82;21134;-75
2021/03/06 07:22:02;;;;;;;5.57;2.80;;;;;;;-1.38;61.09;96655.47;1739045;82;21572;-75
2021/03/06 07:24:30;;;;;;;5.20;2.70;;;;;;;-1.42;61.34;96660.44;1739482;82;21134;-75
2021/03/06 07:27:05;;;;;;;7.03;4.55;;;;;;;-1.45;60.48;96665.06;1738821;82;21134;-74
2021/03/06 07:29:32;;;;;;;6.93;3.43;;;;;;;-1.37;61.76;96661.11;1739292;82;21107;-75
2021/03/06 07:32:02;;;;;;;10.10;5.20;;;;;;;-1.26;61.55;96659.40;1739604;82;21138;-75
2021/03/06 07:34:32;;;;;;;8.33;5.20;;;;;;;-1.14;61.59;96666.41;1739070;82;21166;-75
2021/03/06 07:37:06;;;;;;;8.93;5.00;;;;;;;-1.11;59.96;96663.56;1738391;82;21131;-74
2021/03/06 07:39:40;;;;;;;8.87;4.50;;;;;;;-1.07;60.75;96674.05;1738562;82;21536;-75
2021/03/06 07:42:36;;;;;;;7.57;3.13;;;;;;;-0.96;60.49;96667.61;1738215;82;21110;-75
2021/03/06 07:45:08;;;;;;;6.80;4.03;;;;;;;-0.92;61.37;96669.11;1737376;82;21123;-75
2021/03/06 07:47:42;;;;;;;7.07;3.50;;;;;;;-0.75;60.38;96666.36;1738482;82;21123;-74
2021/03/06 07:50:20;;;;;;;9.80;4.50;;;;;;;-0.75;58.26;96671.55;1738454;82;21131;-75
2021/03/06 07:52:48;;;;;;;9.97;5.50;;;;;;;-0.82;58.46;96675.98;1738281;82;21557;-75
2021/03/06 07:55:17;;;;;;;8.17;4.40;;;;;;;-0.73;59.57;96685.05;1738152;82;21142;-75
2021/03/06 07:58:10;;;;;;;11.37;5.73;;;;;;;-0.70;59.43;96683.88;1738554;82;21130;-75
2021/03/06 08:00:51;;;;;;;8.90;5.07;;;;;;;-0.60;58.77;96689.45;1738355;82;21545;-75
2021/03/06 08:03:34;;;;;;;5.23;2.50;;;;;;;-0.62;58.89;96699.74;1738545;82;21135;-74
2021/03/06 08:06:19;;;;;;;8.83;4.60;;;;;;;-0.57;58.66;96691.75;1738536;82;21118;-75
2021/03/06 08:09:01;;;;;;;7.30;4.27;;;;;;;-0.62;57.85;96705.34;1738292;82;21111;-74
2021/03/06 08:11:42;;;;;;;7.67;4.03;;;;;;;-0.60;58.57;96702.00;1737943;82;21588;-75
2021/03/06 08:14:33;;;;;;;6.30;4.40;;;;;;;-0.36;59.66;96703.41;1738209;82;21134;-69
2021/03/06 08:17:01;;;;;;;8.27;5.10;;;;;;;-0.24;56.92;96713.41;1738234;82;21560;-74
2021/03/06 08:19:33;;;;;;;6.13;3.43;;;;;;;-0.19;58.99;96717.50;1738250;82;21114;-75
2021/03/06 08:22:15;;;;;;;8.50;5.03;;;;;;;-0.16;57.55;96721.50;1738844;82;21280;-74
2021/03/06 08:24:44;;;;;;;9.13;4.17;;;;;;;-0.27;57.38;96723.25;1738253;82;21130;-75
2021/03/06 08:27:18;;;;;;;11.77;5.63;;;;;;;-0.10;59.87;96718.76;1738787;82;21118;-75
2021/03/06 08:29:53;;;;;;;9.03;4.97;;;;;;;0.17;58.40;96721.96;1707988;82;21122;-74
2021/03/06 08:32:29;;;;;;;14.40;5.63;;;;;;;0.06;57.77;96720.67;1738449;82;21118;-74
2021/03/06 08:35:24;;;;;;;6.00;3.47;;;;;;;0.10;57.35;96724.75;1737960;82;21138;-74
2021/03/06 08:37:52;;;;;;;8.60;4.23;;;;;;;0.24;58.24;96725.70;1738105;82;21095;-74
2021/03/06 08:40:30;;;;;;;10.50;6.03;;;;;;;0.18;56.76;96726.34;1738217;82;21106;-74
2021/03/06 08:42:58;;;;;;;11.97;4.97;;;;;;;0.12;56.80;96727.38;1738130;82;21099;-74
2021/03/06 08:45:36;;;;;;;8.38;5.10;;;;;;;-0.05;57.91;96740.58;1738361;82;21082;-75
2021/03/06 08:48:08;;;;;;;7.77;4.00;;;;;;;0.02;56.37;96742.11;1737640;82;21154;-74
2021/03/06 08:50:37;;;;;;;6.00;3.13;;;;;;;-0.13;55.39;96742.38;1738001;82;21110;-74
2021/03/06 08:53:17;;;;;;;4.73;3.03;;;;;;;0.12;56.44;96750.32;1738426;82;21114;-74
2021/03/06 08:55:47;;;;;;;8.77;4.63;;;;;;;0.23;54.53;96737.80;1738464;82;21133;-74
2021/03/06 08:58:22;;;;;;;4.93;3.13;;;;;;;0.49;54.57;96730.13;1738271;82;21521;-74
2021/03/06 09:00:54;;;;;;;7.47;3.93;;;;;;;0.25;54.66;96734.82;1738174;82;21122;-74
2021/03/06 09:03:27;;;;;;;6.53;3.97;;;;;;;0.33;53.87;96734.73;1738520;82;21102;-74
2021/03/06 09:05:58;;;;;;;10.07;4.80;;;;;;;0.69;53.83;96733.07;1738276;82;21122;-74
2021/03/06 09:08:27;;;;;;;7.23;4.87;;;;;;;0.67;51.34;96739.03;1738257;82;21160;-74
2021/03/06 09:10:59;;;;;;;8.57;4.23;;;;;;;0.45;51.79;96746.41;1738507;82;21099;-74
2021/03/06 09:13:33;;;;;;;6.67;3.87;;;;;;;0.39;51.88;96739.27;1738588;82;21260;-74
2021/03/06 09:16:06;;;;;;;8.65;4.08;;;;;;;0.78;51.89;96732.52;1738244;82;21134;-74
2021/03/06 09:18:37;;;;;;;6.65;3.80;;;;;;;1.28;51.22;96736.95;1738268;82;21134;-74
2021/03/06 09:21:13;;;;;;;4.60;2.83;;;;;;;1.56;47.65;96733.14;1738407;82;21121;-74
2021/03/06 09:23:44;;;;;;;5.47;2.57;;;;;;;1.77;49.84;96733.01;1738166;82;21090;-74
2021/03/06 09:26:22;;;;;;;4.93;2.23;;;;;;;1.86;47.39;96724.19;1738319;82;21448;-74
2021/03/06 09:28:53;;;;;;;5.00;2.50;;;;;;;1.47;45.39;96731.13;1738636;82;21650;-74
2021/03/06 09:31:27;;;;;;;5.70;3.00;;;;;;;1.33;45.79;96733.22;1738219;82;21557;-74
2021/03/06 09:33:59;;;;;;;5.13;2.90;;;;;;;1.58;42.35;96744.48;1734757;82;21169;-74
2021/03/06 09:36:32;;;;;;;6.10;3.13;;;;;;;1.58;42.13;96747.09;1738928;82;21561;-74
2021/03/06 09:39:06;;;;;;;5.47;3.03;;;;;;;1.71;42.00;96752.78;1736982;82;21139;-74
2021/03/06 09:41:38;;;;;;;4.80;2.87;;;;;;;1.95;42.55;96750.10;1739611;82;21115;-74
2021/03/06 09:44:09;;;;;;;4.33;2.47;;;;;;;2.19;45.00;96752.16;1739409;82;21083;-74
2021/03/06 09:46:39;;;;;;;6.10;2.90;;;;;;;2.40;44.12;96758.48;1738608;82;21577;-75
2021/03/06 09:49:15;;;;;;;3.33;2.67;;;;;;;2.60;41.76;96755.66;1739484;82;21150;-74
2021/03/06 09:51:53;;;;;;;4.03;2.80;;;;;;;2.47;41.28;96760.42;1739716;82;21139;-74
2021/03/06 09:54:27;;;;;;;5.30;3.03;;;;;;;2.40;39.92;96759.79;1739603;82;21134;-74
2021/03/06 09:56:59;;;;;;;6.83;3.43;;;;;;;2.41;40.74;96758.52;1739388;82;21126;-74
2021/03/06 09:59:38;;;;;;;5.23;3.27;;;;;;;2.37;41.58;96755.37;1738305;82;21114;-74
2021/03/06 10:02:14;;;;;;;5.60;2.50;;;;;;;2.57;41.38;96759.48;1736942;82;21143;-74
2021/03/06 10:04:46;;;;;;;3.00;2.03;;;;;;;2.76;39.23;96763.52;1739673;82;21552;-74
2021/03/06 10:07:14;;;;;;;3.80;2.70;;;;;;;3.03;44.05;96759.55;1739379;82;21087;-74
2021/03/06 10:09:45;;;;;;;5.30;3.17;;;;;;;3.32;38.82;96763.83;1739290;82;21545;-74
2021/03/06 10:12:16;;;;;;;4.13;2.30;;;;;;;2.83;38.34;96771.11;1739582;82;21122;-74
2021/03/06 10:14:50;;;;;;;6.47;3.37;;;;;;;2.63;39.55;96771.80;1738131;82;21131;-73
2021/03/06 10:17:25;;;;;;;5.57;3.50;;;;;;;2.63;40.58;96775.71;1739304;82;21585;-74
2021/03/06 10:19:55;;;;;;;4.47;2.20;;;;;;;2.44;37.15;96782.47;1739608;82;21106;-74
2021/03/06 10:22:23;;;;;;;3.73;2.33;;;;;;;2.31;37.07;96790.31;1739368;82;21130;-74
2021/03/06 10:25:02;;;;;;;3.87;2.40;;;;;;;2.49;38.73;96781.77;1739358;82;21138;-74
2021/03/06 10:27:46;;;;;;;3.70;2.27;;;;;;;2.52;37.13;96780.59;1739861;82;21096;-74
2021/03/06 10:30:27;;;;;;;4.70;2.87;;;;;;;2.44;37.27;96791.59;1739319;82;21122;-74
2021/03/06 10:33:00;;;;;;;7.53;3.10;;;;;;;2.17;37.35;96788.58;1739692;82;21122;-74
2021/03/06 10:35:46;;;;;;;9.17;3.77;;;;;;;1.83;37.17;96795.23;1739215;82;21170;-73
2021/03/06 10:38:29;;;;;;;3.50;1.80;;;;;;;1.96;38.57;96797.83;1739460;82;21125;-74
2021/03/06 10:41:01;;;;;;;2.67;1.97;;;;;;;2.41;38.05;96794.11;1739674;82;21078;-74
2021/03/06 10:43:42;;;;;;;3.73;2.47;;;;;;;2.94;40.13;96792.28;1739361;82;21131;-74
2021/03/06 10:46:24;;;;;;;4.57;2.90;;;;;;;3.29;35.78;96782.88;1736168;82;21106;-73
2021/03/06 10:49:08;;;;;;;3.67;2.50;;;;;;;3.03;33.15;96776.50;1739620;82;21141;-73
2021/03/06 10:51:45;;;;;;;;;;;;;;;2.59;34.86;96785.14;1742026;82;21533;-73
2021/03/06 10:54:13;;;;;;;3.27;1.83;;;;;;;2.58;37.09;96788.59;1739562;82;20152;-73
2021/03/06 10:56:42;;;;;;;3.00;1.80;;;;;;;3.39;36.25;96772.30;1739378;82;21142;-72
2021/03/06 10:59:21;;;;;;;3.93;2.80;;;;;;;3.43;34.58;96771.13;1739551;82;21536;-73
2021/03/06 11:01:53;;;;;;;2.70;1.33;;;;;;;3.16;35.45;96775.55;1735381;82;21624;-73
2021/03/06 11:04:36;;;;;;;2.02;1.82;;;;;;;3.18;36.41;96775.19;1739387;82;21111;-74
2021/03/06 11:07:08;;;;;;;3.87;1.60;;;;;;;4.05;35.17;96768.83;1739467;82;21106;-74
2021/03/06 11:09:38;;;;;;;3.00;1.20;;;;;;;4.06;28.84;96774.54;1739349;82;21135;-74
2021/03/06 11:12:28;;;;;;;3.57;1.20;;;;;;;4.04;28.67;96767.95;1739193;82;21109;-73
2021/03/06 11:15:18;;;;;;;2.13;1.23;;;;;;;4.79;31.37;96767.58;1739110;82;21151;-73
2021/03/06 11:17:53;;;;;;;4.60;2.00;;;;;;;5.30;30.33;96764.75;1739262;82;21138;-73
2021/03/06 11:20:26;;;;;;;4.43;2.30;;;;;;;4.43;27.55;96778.05;1739652;82;21122;-74
2021/03/06 11:22:55;;;;;;;2.53;1.70;;;;;;;3.63;29.18;96781.23;1704399;84;21156;-73
2021/03/06 11:25:23;;;;;;;2.63;1.53;;;;;;;4.25;29.43;96771.95;1698739;84;21152;-73
2021/03/06 11:28:01;;;;;;;4.53;1.73;;;;;;;4.88;28.57;96768.20;1699396;84;21180;-73
2021/03/06 11:30:37;;;;;;;6.00;2.70;;;;;;;5.70;30.45;96752.45;1698940;84;21579;-74
2021/03/06 11:33:10;;;;;;;1.97;1.50;;;;;;;5.97;27.73;96762.56;1698683;84;21136;-73
2021/03/06 11:35:40;;;;;;;2.27;1.80;;;;;;;6.02;27.76;96756.58;1684594;84;21323;-73
2021/03/06 11:38:13;;;;;;;3.33;1.73;;;;;;;6.46;26.05;96760.36;1699676;84;21157;-73
2021/03/06 11:40:47;;;;;;;3.10;1.70;;;;;;;7.17;24.50;96750.02;1702741;84;21282;-73
2021/03/06 11:43:18;;;;;;;1.97;1.23;;;;;;;6.65;24.07;96747.53;1701182;84;21731;-73
2021/03/06 11:45:48;;;;;;;2.13;1.60;;;;;;;6.39;25.13;96754.56;1702524;84;21745;-69
2021/03/06 11:48:16;;;;;;;4.43;2.80;;;;;;;5.94;24.45;96752.04;1702573;84;21173;-74
2021/03/06 11:50:48;;;;;;;3.47;2.33;;;;;;;5.16;25.95;96758.78;1702705;84;21704;-72
2021/03/06 11:53:17;;;;;;;7.60;5.08;;;;;;;4.25;27.15;96767.60;1702601;84;21745;-74
2021/03/06 11:55:45;;;;;;;1.83;1.27;;;;;;;3.79;27.51;96779.48;1702812;84;21129;-74
2021/03/06 11:58:15;;;;;;;4.87;2.17;;;;;;;4.47;28.92;96769.02;1693781;84;21291;-74
2021/03/06 12:00:44;;;;;;;3.43;2.17;;;;;;;4.47;27.74;96762.48;1693218;85;21595;-74
2021/03/06 12:03:12;;;;;;;7.30;3.00;;;;;;;4.29;28.26;96753.78;1693581;85;21157;-73